PWSweather.com
Personal Weather Stations
Station Observations
PENICUIKWS
PenicuikGB

PenicuikGB

Lat: 55.830932, Lon: -3.224533000000065

Elevation: 166

Station Type: Fine Offset

http://weather.penicuik.org

High Low Average
Temperature 65.5°F18.6°C 50.4°F10.2°C 55.7°F13.2°C
Dew Point 54.2°F12.3°C 45.7°F7.6°C 48.3°F9.1°C
Winds 8.8 mph 14.2 kmh 1.9 mph 3.1 kmh 5.0 mph SW8.0 kmh SW
Wind Gusts 13.6 mph21.9 kmh 3.1 mph5.0 kmh 8.0 mph12.9 kmh
Humidity 98% 51% 78%
Pressure 29.96 in1014.6 mb 29.73 in1006.8 mb -
Precipitation 0.12 in3.0 mm - -
Hour Temp Dew Point Humidity Winds Wind Gusts Pressure Precip Precip Rate Daily Precip Total
12:00 AM 55.0°F12.8°C 54.2°F12.3°C 97% 3.5 mph SW5.6 kmh SW 6.9 mph11.1 kmh 29.77 in1008.1 mb 0.02 in0.5 mm 0.00 in0.0 mm 0.02 in0.5 mm
12:15 AM 54.9°F12.7°C 54.0°F12.2°C 97% 3.5 mph SW5.6 kmh SW 5.4 mph8.7 kmh 29.76 in1007.8 mb 0.01 in0.3 mm 0.00 in0.0 mm 0.02 in0.5 mm
12:30 AM 54.0°F12.2°C 53.1°F11.7°C 97% 2.5 mph S4.0 kmh S 3.8 mph6.1 kmh 29.76 in1007.8 mb 0.04 in1.0 mm 0.12 in3.0 mm 0.05 in1.3 mm
01:00 AM 51.8°F11.0°C 51.3°F10.7°C 98% 3.7 mph WSW6.0 kmh WSW 6.9 mph11.1 kmh 29.77 in1008.1 mb 0.05 in1.3 mm 0.02 in0.5 mm 0.07 in1.8 mm
01:15 AM 51.4°F10.8°C 50.6°F10.3°C 97% 4.1 mph W6.6 kmh W 6.9 mph11.1 kmh 29.77 in1008.1 mb 0.06 in1.5 mm 0.04 in1.0 mm 0.08 in2.0 mm
01:30 AM 50.5°F10.3°C 49.7°F9.8°C 97% 2.6 mph SSW4.2 kmh SSW 3.8 mph6.1 kmh 29.77 in1008.1 mb 0.05 in1.3 mm 0.00 in0.0 mm 0.09 in2.3 mm
01:45 AM 50.5°F10.3°C 49.7°F9.8°C 97% 1.9 mph N3.1 kmh N 3.1 mph5.0 kmh 29.77 in1008.1 mb 0.05 in1.3 mm 0.00 in0.0 mm 0.09 in2.3 mm
02:00 AM 50.5°F10.3°C 49.7°F9.8°C 97% 3.9 mph ENE6.3 kmh ENE 6.0 mph9.7 kmh 29.77 in1008.1 mb 0.02 in0.5 mm 0.00 in0.0 mm 0.09 in2.3 mm
02:15 AM 50.5°F10.3°C 49.7°F9.8°C 97% 2.4 mph SSE3.9 kmh SSE 4.5 mph7.2 kmh 29.77 in1008.1 mb 0.01 in0.3 mm 0.00 in0.0 mm 0.09 in2.3 mm
02:45 AM 50.5°F10.3°C 49.7°F9.8°C 97% 3.3 mph SW5.3 kmh SW 5.4 mph8.7 kmh 29.76 in1007.8 mb 0.01 in0.3 mm 0.00 in0.0 mm 0.11 in2.8 mm
03:00 AM 50.5°F10.3°C 49.7°F9.8°C 97% 4.2 mph SSW6.8 kmh SSW 6.0 mph9.7 kmh 29.75 in1007.5 mb 0.01 in0.3 mm 0.00 in0.0 mm 0.11 in2.8 mm
03:15 AM 50.4°F10.2°C 49.3°F9.6°C 96% 4.1 mph SSE6.6 kmh SSE 6.0 mph9.7 kmh 29.73 in1006.8 mb 0.01 in0.3 mm 0.00 in0.0 mm 0.11 in2.8 mm
03:30 AM 50.4°F10.2°C 48.7°F9.3°C 94% 4.0 mph SE6.4 kmh SE 6.0 mph9.7 kmh 29.73 in1006.8 mb 0.01 in0.3 mm 0.00 in0.0 mm 0.11 in2.8 mm
03:45 AM 51.3°F10.7°C 49.3°F9.6°C 93% 4.2 mph S6.8 kmh S 6.9 mph11.1 kmh 29.74 in1007.1 mb 0.00 in0.0 mm 0.00 in0.0 mm 0.11 in2.8 mm
04:00 AM 51.3°F10.7°C 49.6°F9.8°C 94% 5.5 mph N8.9 kmh N 8.3 mph13.4 kmh 29.73 in1006.8 mb 0.00 in0.0 mm 0.00 in0.0 mm 0.11 in2.8 mm
04:30 AM 51.4°F10.8°C 49.5°F9.7°C 93% 5.7 mph NNW9.2 kmh NNW 12.1 mph19.5 kmh 29.73 in1006.8 mb 0.00 in0.0 mm 0.00 in0.0 mm 0.11 in2.8 mm
04:45 AM 51.6°F10.9°C 49.7°F9.8°C 93% 5.8 mph NW9.3 kmh NW 12.1 mph19.5 kmh 29.74 in1007.1 mb 0.00 in0.0 mm 0.00 in0.0 mm 0.11 in2.8 mm
05:00 AM 51.6°F10.9°C 49.4°F9.7°C 92% 4.1 mph WSW6.6 kmh WSW 6.9 mph11.1 kmh 29.75 in1007.5 mb 0.00 in0.0 mm 0.00 in0.0 mm 0.11 in2.8 mm
05:15 AM 51.6°F10.9°C 49.4°F9.7°C 92% 4.7 mph W7.6 kmh W 7.6 mph12.2 kmh 29.75 in1007.5 mb 0.00 in0.0 mm 0.00 in0.0 mm 0.11 in2.8 mm
05:30 AM 51.8°F11.0°C 49.3°F9.6°C 91% 5.0 mph SW8.0 kmh SW 11.4 mph18.3 kmh 29.76 in1007.8 mb 0.00 in0.0 mm 0.00 in0.0 mm 0.11 in2.8 mm
06:00 AM 51.6°F10.9°C 47.9°F8.8°C 87% 5.7 mph SW9.2 kmh SW 10.7 mph17.2 kmh 29.76 in1007.8 mb 0.00 in0.0 mm 0.00 in0.0 mm 0.11 in2.8 mm
06:15 AM 51.8°F11.0°C 47.8°F8.8°C 86% 5.4 mph WSW8.7 kmh WSW 8.3 mph13.4 kmh 29.77 in1008.1 mb 0.00 in0.0 mm 0.00 in0.0 mm 0.11 in2.8 mm
06:30 AM 52.3°F11.3°C 48.0°F8.9°C 85% 6.9 mph SSW11.1 kmh SSW 13.0 mph20.9 kmh 29.77 in1008.1 mb 0.00 in0.0 mm 0.00 in0.0 mm 0.11 in2.8 mm
06:45 AM 53.2°F11.8°C 48.5°F9.2°C 84% 5.6 mph S9.0 kmh S 13.0 mph20.9 kmh 29.78 in1008.5 mb 0.00 in0.0 mm 0.00 in0.0 mm 0.11 in2.8 mm
07:00 AM 53.1°F11.7°C 48.0°F8.9°C 83% 7.5 mph SE12.1 kmh SE 11.4 mph18.3 kmh 29.79 in1008.8 mb 0.00 in0.0 mm 0.00 in0.0 mm 0.11 in2.8 mm
07:15 AM 52.5°F11.4°C 47.5°F8.6°C 83% 5.7 mph WSW9.2 kmh WSW 13.6 mph21.9 kmh 29.80 in1009.1 mb 0.00 in0.0 mm 0.00 in0.0 mm 0.11 in2.8 mm
07:45 AM 54.7°F12.6°C 48.3°F9.1°C 79% 8.8 mph SSW14.2 kmh SSW 12.1 mph19.5 kmh 29.80 in1009.1 mb 0.00 in0.0 mm 0.00 in0.0 mm 0.11 in2.8 mm
08:00 AM 55.4°F13.0°C 48.0°F8.9°C 76% 6.0 mph SSE9.7 kmh SSE 10.7 mph17.2 kmh 29.81 in1009.5 mb 0.00 in0.0 mm 0.00 in0.0 mm 0.11 in2.8 mm
08:15 AM 54.5°F12.5°C 47.1°F8.4°C 76% 5.9 mph WNW9.5 kmh WNW 8.3 mph13.4 kmh 29.82 in1009.8 mb 0.00 in0.0 mm 0.00 in0.0 mm 0.11 in2.8 mm
08:30 AM 57.4°F14.1°C 48.4°F9.1°C 72% 4.9 mph W7.9 kmh W 12.1 mph19.5 kmh 29.83 in1010.2 mb 0.00 in0.0 mm 0.00 in0.0 mm 0.11 in2.8 mm
08:45 AM 62.1°F16.7°C 48.5°F9.2°C 61% 5.4 mph WSW8.7 kmh WSW 8.3 mph13.4 kmh 29.83 in1010.2 mb 0.00 in0.0 mm 0.00 in0.0 mm 0.11 in2.8 mm
09:00 AM 60.3°F15.7°C 46.8°F8.2°C 61% 5.4 mph S8.7 kmh S 9.8 mph15.8 kmh 29.84 in1010.5 mb 0.00 in0.0 mm 0.00 in0.0 mm 0.11 in2.8 mm
09:15 AM 61.7°F16.5°C 48.1°F8.9°C 61% 4.3 mph SE6.9 kmh SE 9.8 mph15.8 kmh 29.84 in1010.5 mb 0.00 in0.0 mm 0.00 in0.0 mm 0.11 in2.8 mm
09:30 AM 61.9°F16.6°C 46.5°F8.1°C 57% 4.9 mph SE7.9 kmh SE 9.2 mph14.8 kmh 29.86 in1011.2 mb 0.00 in0.0 mm 0.00 in0.0 mm 0.11 in2.8 mm
09:45 AM 61.0°F16.1°C 46.1°F7.8°C 58% 4.7 mph S7.6 kmh S 6.9 mph11.1 kmh 29.86 in1011.2 mb 0.00 in0.0 mm 0.00 in0.0 mm 0.11 in2.8 mm
10:00 AM 65.3°F18.5°C 47.7°F8.7°C 53% 5.0 mph S8.0 kmh S 7.6 mph12.2 kmh 29.87 in1011.5 mb 0.00 in0.0 mm 0.00 in0.0 mm 0.11 in2.8 mm
10:15 AM 64.6°F18.1°C 46.1°F7.8°C 51% 5.4 mph S8.7 kmh S 6.9 mph11.1 kmh 29.87 in1011.5 mb 0.00 in0.0 mm 0.00 in0.0 mm 0.11 in2.8 mm
10:30 AM 61.9°F16.6°C 47.0°F8.3°C 58% 4.3 mph WSW6.9 kmh WSW 6.9 mph11.1 kmh 29.88 in1011.9 mb 0.00 in0.0 mm 0.00 in0.0 mm 0.11 in2.8 mm
10:45 AM 61.3°F16.3°C 48.7°F9.3°C 63% 4.9 mph SW7.9 kmh SW 7.6 mph12.2 kmh 29.87 in1011.5 mb 0.00 in0.0 mm 0.00 in0.0 mm 0.11 in2.8 mm
11:00 AM 60.6°F15.9°C 48.0°F8.9°C 63% 5.0 mph NNW8.0 kmh NNW 9.2 mph14.8 kmh 29.89 in1012.2 mb 0.00 in0.0 mm 0.00 in0.0 mm 0.11 in2.8 mm
11:30 AM 63.3°F17.4°C 46.4°F8.0°C 54% 6.2 mph SW10.0 kmh SW 8.3 mph13.4 kmh 29.88 in1011.9 mb 0.00 in0.0 mm 0.00 in0.0 mm 0.11 in2.8 mm
11:45 AM 63.1°F17.3°C 47.7°F8.7°C 57% 5.6 mph SSW9.0 kmh SSW 9.2 mph14.8 kmh 29.89 in1012.2 mb 0.00 in0.0 mm 0.00 in0.0 mm 0.11 in2.8 mm
12:00 PM 61.9°F16.6°C 47.4°F8.6°C 59% 4.1 mph SSW6.6 kmh SSW 6.9 mph11.1 kmh 29.90 in1012.5 mb 0.00 in0.0 mm 0.00 in0.0 mm 0.11 in2.8 mm
12:15 PM 61.5°F16.4°C 47.5°F8.6°C 60% 5.3 mph S8.5 kmh S 12.1 mph19.5 kmh 29.89 in1012.2 mb 0.00 in0.0 mm 0.00 in0.0 mm 0.11 in2.8 mm
12:30 PM 62.8°F17.1°C 46.9°F8.3°C 56% 4.8 mph WSW7.7 kmh WSW 8.3 mph13.4 kmh 29.89 in1012.2 mb 0.00 in0.0 mm 0.00 in0.0 mm 0.11 in2.8 mm
12:45 PM 64.0°F17.8°C 46.6°F8.1°C 53% 4.7 mph S7.6 kmh S 8.3 mph13.4 kmh 29.89 in1012.2 mb 0.00 in0.0 mm 0.00 in0.0 mm 0.11 in2.8 mm
01:00 PM 61.5°F16.4°C 45.7°F7.6°C 56% 5.5 mph WSW8.9 kmh WSW 8.3 mph13.4 kmh 29.89 in1012.2 mb 0.00 in0.0 mm 0.00 in0.0 mm 0.11 in2.8 mm
01:15 PM 63.1°F17.3°C 46.7°F8.2°C 55% 6.6 mph WSW10.6 kmh WSW 9.2 mph14.8 kmh 29.89 in1012.2 mb 0.00 in0.0 mm 0.00 in0.0 mm 0.11 in2.8 mm
01:30 PM 64.9°F18.3°C 47.9°F8.8°C 54% 5.6 mph S9.0 kmh S 10.7 mph17.2 kmh 29.89 in1012.2 mb 0.00 in0.0 mm 0.00 in0.0 mm 0.11 in2.8 mm
02:00 PM 65.5°F18.6°C 47.4°F8.6°C 52% 6.4 mph NW10.3 kmh NW 9.8 mph15.8 kmh 29.89 in1012.2 mb 0.00 in0.0 mm 0.00 in0.0 mm 0.11 in2.8 mm
02:15 PM 64.6°F18.1°C 46.6°F8.1°C 52% 6.2 mph ESE10.0 kmh ESE 9.2 mph14.8 kmh 29.90 in1012.5 mb 0.00 in0.0 mm 0.00 in0.0 mm 0.11 in2.8 mm
02:30 PM 63.7°F17.6°C 45.7°F7.6°C 52% 6.9 mph SSE11.1 kmh SSE 13.0 mph20.9 kmh 29.89 in1012.2 mb 0.00 in0.0 mm 0.00 in0.0 mm 0.11 in2.8 mm
02:45 PM 61.9°F16.6°C 47.0°F8.3°C 58% 5.2 mph SSW8.4 kmh SSW 9.8 mph15.8 kmh 29.90 in1012.5 mb 0.00 in0.0 mm 0.00 in0.0 mm 0.11 in2.8 mm
03:15 PM 60.6°F15.9°C 46.7°F8.2°C 60% 6.1 mph NW9.8 kmh NW 8.3 mph13.4 kmh 29.89 in1012.2 mb 0.00 in0.0 mm 0.00 in0.0 mm 0.11 in2.8 mm
03:30 PM 60.1°F15.6°C 47.0°F8.3°C 62% 5.9 mph WSW9.5 kmh WSW 7.6 mph12.2 kmh 29.89 in1012.2 mb 0.00 in0.0 mm 0.00 in0.0 mm 0.11 in2.8 mm
03:45 PM 59.5°F15.3°C 46.9°F8.3°C 63% 5.1 mph WSW8.2 kmh WSW 7.6 mph12.2 kmh 29.89 in1012.2 mb 0.00 in0.0 mm 0.00 in0.0 mm 0.11 in2.8 mm
04:00 PM 59.4°F15.2°C 47.2°F8.4°C 64% 5.1 mph WNW8.2 kmh WNW 8.3 mph13.4 kmh 29.89 in1012.2 mb 0.00 in0.0 mm 0.00 in0.0 mm 0.11 in2.8 mm
04:15 PM 57.6°F14.2°C 49.0°F9.4°C 73% 3.5 mph S5.6 kmh S 8.3 mph13.4 kmh 29.89 in1012.2 mb 0.00 in0.0 mm 0.00 in0.0 mm 0.11 in2.8 mm
04:30 PM 57.0°F13.9°C 49.2°F9.6°C 75% 5.4 mph N8.7 kmh N 9.2 mph14.8 kmh 29.89 in1012.2 mb 0.00 in0.0 mm 0.00 in0.0 mm 0.11 in2.8 mm
04:45 PM 56.7°F13.7°C 49.2°F9.6°C 76% 4.5 mph WSW7.2 kmh WSW 6.0 mph9.7 kmh 29.89 in1012.2 mb 0.00 in0.0 mm 0.00 in0.0 mm 0.11 in2.8 mm
05:00 PM 56.3°F13.5°C 48.8°F9.3°C 76% 5.6 mph W9.0 kmh W 7.6 mph12.2 kmh 29.89 in1012.2 mb 0.00 in0.0 mm 0.00 in0.0 mm 0.11 in2.8 mm
05:15 PM 56.5°F13.6°C 49.0°F9.4°C 76% 3.4 mph WSW5.5 kmh WSW 6.9 mph11.1 kmh 29.89 in1012.2 mb 0.00 in0.0 mm 0.00 in0.0 mm 0.11 in2.8 mm
05:30 PM 56.1°F13.4°C 48.3°F9.1°C 75% 4.4 mph SSW7.1 kmh SSW 7.6 mph12.2 kmh 29.89 in1012.2 mb 0.00 in0.0 mm 0.00 in0.0 mm 0.11 in2.8 mm
05:45 PM 55.8°F13.2°C 48.3°F9.1°C 76% 2.8 mph SW4.5 kmh SW 6.0 mph9.7 kmh 29.90 in1012.5 mb 0.00 in0.0 mm 0.00 in0.0 mm 0.11 in2.8 mm
06:15 PM 55.4°F13.0°C 48.3°F9.1°C 77% 4.0 mph SSE6.4 kmh SSE 6.0 mph9.7 kmh 29.92 in1013.2 mb 0.00 in0.0 mm 0.00 in0.0 mm 0.11 in2.8 mm
06:30 PM 52.5°F11.4°C 47.5°F8.6°C 83% 4.5 mph SSW7.2 kmh SSW 6.9 mph11.1 kmh 29.91 in1012.9 mb 0.01 in0.3 mm 0.04 in1.0 mm 0.12 in3.0 mm
06:45 PM 51.4°F10.8°C 48.3°F9.1°C 89% 2.4 mph NNW3.9 kmh NNW 3.8 mph6.1 kmh 29.92 in1013.2 mb 0.01 in0.3 mm 0.00 in0.0 mm 0.12 in3.0 mm
07:00 PM 50.5°F10.3°C 47.7°F8.7°C 90% 2.8 mph NW4.5 kmh NW 3.8 mph6.1 kmh 29.91 in1012.9 mb 0.01 in0.3 mm 0.00 in0.0 mm 0.12 in3.0 mm
07:30 PM 51.4°F10.8°C 48.9°F9.4°C 91% 4.0 mph SW6.4 kmh SW 7.6 mph12.2 kmh 29.93 in1013.5 mb 0.00 in0.0 mm 0.00 in0.0 mm 0.12 in3.0 mm
07:45 PM 51.8°F11.0°C 49.0°F9.4°C 90% 2.8 mph ESE4.5 kmh ESE 3.8 mph6.1 kmh 29.93 in1013.5 mb 0.00 in0.0 mm 0.00 in0.0 mm 0.12 in3.0 mm
08:00 PM 51.8°F11.0°C 49.3°F9.6°C 91% 3.6 mph SSW5.8 kmh SSW 5.4 mph8.7 kmh 29.93 in1013.5 mb 0.00 in0.0 mm 0.00 in0.0 mm 0.12 in3.0 mm
08:15 PM 51.6°F10.9°C 49.1°F9.5°C 91% 3.4 mph SW5.5 kmh SW 6.0 mph9.7 kmh 29.94 in1013.9 mb 0.00 in0.0 mm 0.00 in0.0 mm 0.12 in3.0 mm
08:30 PM 51.6°F10.9°C 49.1°F9.5°C 91% 4.4 mph WSW7.1 kmh WSW 8.3 mph13.4 kmh 29.93 in1013.5 mb 0.00 in0.0 mm 0.00 in0.0 mm 0.12 in3.0 mm
08:45 PM 51.8°F11.0°C 48.7°F9.3°C 89% 4.8 mph S7.7 kmh S 9.8 mph15.8 kmh 29.94 in1013.9 mb 0.00 in0.0 mm 0.00 in0.0 mm 0.12 in3.0 mm
09:00 PM 51.8°F11.0°C 47.4°F8.6°C 85% 3.8 mph WSW6.1 kmh WSW 7.6 mph12.2 kmh 29.94 in1013.9 mb 0.00 in0.0 mm 0.00 in0.0 mm 0.12 in3.0 mm
09:30 PM 51.3°F10.7°C 47.5°F8.6°C 87% 2.5 mph SW4.0 kmh SW 3.8 mph6.1 kmh 29.95 in1014.2 mb 0.00 in0.0 mm 0.00 in0.0 mm 0.12 in3.0 mm
09:45 PM 51.3°F10.7°C 47.5°F8.6°C 87% 4.3 mph SSE6.9 kmh SSE 9.8 mph15.8 kmh 29.94 in1013.9 mb 0.00 in0.0 mm 0.00 in0.0 mm 0.12 in3.0 mm
10:00 PM 51.3°F10.7°C 47.2°F8.4°C 86% 3.8 mph WSW6.1 kmh WSW 6.0 mph9.7 kmh 29.95 in1014.2 mb 0.00 in0.0 mm 0.00 in0.0 mm 0.12 in3.0 mm
10:15 PM 51.3°F10.7°C 47.5°F8.6°C 87% 3.0 mph S4.8 kmh S 4.5 mph7.2 kmh 29.96 in1014.6 mb 0.00 in0.0 mm 0.00 in0.0 mm 0.12 in3.0 mm
10:30 PM 51.4°F10.8°C 48.0°F8.9°C 88% 3.1 mph SSW5.0 kmh SSW 4.5 mph7.2 kmh 29.96 in1014.6 mb 0.00 in0.0 mm 0.00 in0.0 mm 0.12 in3.0 mm
10:45 PM 51.6°F10.9°C 47.6°F8.7°C 86% 3.7 mph SE6.0 kmh SE 5.4 mph8.7 kmh 29.96 in1014.6 mb 0.00 in0.0 mm 0.00 in0.0 mm 0.12 in3.0 mm
11:15 PM 51.6°F10.9°C 47.3°F8.5°C 85% 3.4 mph NW5.5 kmh NW 5.4 mph8.7 kmh 29.96 in1014.6 mb 0.00 in0.0 mm 0.00 in0.0 mm 0.08 in2.0 mm
11:30 PM 51.6°F10.9°C 46.9°F8.3°C 84% 5.3 mph SW8.5 kmh SW 7.6 mph12.2 kmh 29.96 in1014.6 mb 0.00 in0.0 mm 0.00 in0.0 mm 0.08 in2.0 mm
11:45 PM 51.4°F10.8°C 47.1°F8.4°C 85% 4.1 mph SW6.6 kmh SW 7.6 mph12.2 kmh 29.96 in1014.6 mb 0.00 in0.0 mm 0.00 in0.0 mm 0.08 in2.0 mm